sensor_id;sensor_type;location;lat;lon;timestamp;pressure;altitude;pressure_sealevel;temperature;humidity
38038;BME280;23843;51.320;12.340;2023-11-22T00:00:05;101052.44;;;3.39;70.58
38038;BME280;23843;51.320;12.340;2023-11-22T00:02:30;101053.63;;;3.37;70.59
38038;BME280;23843;51.320;12.340;2023-11-22T00:04:56;101055.88;;;3.33;70.16
38038;BME280;23843;51.320;12.340;2023-11-22T00:07:21;101064.13;;;3.33;70.72
38038;BME280;23843;51.320;12.340;2023-11-22T00:09:46;101055.03;;;3.33;70.14
38038;BME280;23843;51.320;12.340;2023-11-22T00:12:13;101055.19;;;3.31;70.04
38038;BME280;23843;51.320;12.340;2023-11-22T00:14:39;101057.75;;;3.33;70.93
38038;BME280;23843;51.320;12.340;2023-11-22T00:17:04;101056.75;;;3.34;70.10
38038;BME280;23843;51.320;12.340;2023-11-22T00:19:30;101063.41;;;3.31;69.37
38038;BME280;23843;51.320;12.340;2023-11-22T00:21:55;101061.03;;;3.28;70.21
38038;BME280;23843;51.320;12.340;2023-11-22T00:24:21;101063.78;;;3.28;70.54
38038;BME280;23843;51.320;12.340;2023-11-22T00:26:46;101069.28;;;3.28;69.78
38038;BME280;23843;51.320;12.340;2023-11-22T00:29:13;101070.81;;;3.31;70.12
38038;BME280;23843;51.320;12.340;2023-11-22T00:31:38;101065.31;;;3.31;70.45
38038;BME280;23843;51.320;12.340;2023-11-22T00:34:04;101059.31;;;3.27;70.01
38038;BME280;23843;51.320;12.340;2023-11-22T00:36:29;101059.47;;;3.26;70.74
38038;BME280;23843;51.320;12.340;2023-11-22T00:38:55;101065.84;;;3.26;70.04
38038;BME280;23843;51.320;12.340;2023-11-22T00:41:20;101075.09;;;3.25;70.22
38038;BME280;23843;51.320;12.340;2023-11-22T00:43:46;101071.31;;;3.26;69.73
38038;BME280;23843;51.320;12.340;2023-11-22T00:46:12;101081.59;;;3.24;69.23
38038;BME280;23843;51.320;12.340;2023-11-22T00:48:38;101100.31;;;3.21;70.14
38038;BME280;23843;51.320;12.340;2023-11-22T00:51:03;101097.56;;;3.12;68.75
38038;BME280;23843;51.320;12.340;2023-11-22T00:53:29;101103.91;;;3.05;69.17
38038;BME280;23843;51.320;12.340;2023-11-22T00:55:54;101101.47;;;3.02;69.10
38038;BME280;23843;51.320;12.340;2023-11-22T00:58:20;101102.16;;;3.04;69.94
38038;BME280;23843;51.320;12.340;2023-11-22T01:00:45;101105.63;;;3.06;68.89
38038;BME280;23843;51.320;12.340;2023-11-22T01:03:12;101102.88;;;3.06;69.64
38038;BME280;23843;51.320;12.340;2023-11-22T01:05:37;101104.41;;;3.08;69.71
38038;BME280;23843;51.320;12.340;2023-11-22T01:08:03;101104.25;;;3.10;69.06
38038;BME280;23843;51.320;12.340;2023-11-22T01:10:28;101109.03;;;3.08;68.86
38038;BME280;23843;51.320;12.340;2023-11-22T01:12:54;101110.91;;;3.07;69.48
38038;BME280;23843;51.320;12.340;2023-11-22T01:15:19;101112.63;;;3.08;68.92
38038;BME280;23843;51.320;12.340;2023-11-22T01:17:45;101110.59;;;3.10;69.42
38038;BME280;23843;51.320;12.340;2023-11-22T01:20:12;101104.41;;;3.08;70.02
38038;BME280;23843;51.320;12.340;2023-11-22T01:22:37;101108.53;;;3.12;69.31
38038;BME280;23843;51.320;12.340;2023-11-22T01:25:04;101107.53;;;3.13;70.04
38038;BME280;23843;51.320;12.340;2023-11-22T01:27:29;101120.19;;;3.14;69.05
38038;BME280;23843;51.320;12.340;2023-11-22T01:29:55;101126.75;;;3.13;69.99
38038;BME280;23843;51.320;12.340;2023-11-22T01:32:20;101128.63;;;3.13;70.14
38038;BME280;23843;51.320;12.340;2023-11-22T01:34:46;101133.91;;;3.14;69.25
38038;BME280;23843;51.320;12.340;2023-11-22T01:37:12;101134.78;;;3.15;69.10
38038;BME280;23843;51.320;12.340;2023-11-22T01:39:39;101128.09;;;3.18;69.84
38038;BME280;23843;51.320;12.340;2023-11-22T01:42:05;101127.06;;;3.19;69.96
38038;BME280;23843;51.320;12.340;2023-11-22T01:44:30;101125.53;;;3.16;69.74
38038;BME280;23843;51.320;12.340;2023-11-22T01:46:56;101121.06;;;3.15;68.99
38038;BME280;23843;51.320;12.340;2023-11-22T01:49:22;101126.53;;;3.15;69.47
38038;BME280;23843;51.320;12.340;2023-11-22T01:51:47;101128.44;;;3.14;69.28
38038;BME280;23843;51.320;12.340;2023-11-22T01:54:15;101126.34;;;3.08;69.57
38038;BME280;23843;51.320;12.340;2023-11-22T01:56:43;101128.22;;;3.00;69.81
38038;BME280;23843;51.320;12.340;2023-11-22T01:59:09;101126.50;;;2.91;69.41
38038;BME280;23843;51.320;12.340;2023-11-22T02:01:35;101130.06;;;2.83;69.39
38038;BME280;23843;51.320;12.340;2023-11-22T02:04:00;101133.66;;;2.76;69.32
38038;BME280;23843;51.320;12.340;2023-11-22T02:06:25;101144.59;;;2.67;70.56
38038;BME280;23843;51.320;12.340;2023-11-22T02:08:51;101155.38;;;2.61;69.85
38038;BME280;23843;51.320;12.340;2023-11-22T02:11:18;101168.88;;;2.54;70.27
38038;BME280;23843;51.320;12.340;2023-11-22T02:13:44;101171.06;;;2.51;70.10
38038;BME280;23843;51.320;12.340;2023-11-22T02:16:09;101169.84;;;2.45;70.41
38038;BME280;23843;51.320;12.340;2023-11-22T02:18:34;101163.81;;;2.42;70.11
38038;BME280;23843;51.320;12.340;2023-11-22T02:21:00;101168.78;;;2.38;70.52
38038;BME280;23843;51.320;12.340;2023-11-22T02:23:27;101163.78;;;2.33;70.95
38038;BME280;23843;51.320;12.340;2023-11-22T02:25:52;101157.91;;;2.28;70.42
38038;BME280;23843;51.320;12.340;2023-11-22T02:28:18;101169.69;;;2.21;70.48
38038;BME280;23843;51.320;12.340;2023-11-22T02:30:43;101164.84;;;2.15;70.58
38038;BME280;23843;51.320;12.340;2023-11-22T02:33:09;101172.72;;;2.10;70.99
38038;BME280;23843;51.320;12.340;2023-11-22T02:35:34;101177.63;;;2.06;70.98
38038;BME280;23843;51.320;12.340;2023-11-22T02:38:00;101185.34;;;2.03;70.98
38038;BME280;23843;51.320;12.340;2023-11-22T02:40:27;101187.00;;;1.95;70.93
38038;BME280;23843;51.320;12.340;2023-11-22T02:42:53;101191.75;;;1.93;71.07
38038;BME280;23843;51.320;12.340;2023-11-22T02:45:20;101197.72;;;1.89;70.60
38038;BME280;23843;51.320;12.340;2023-11-22T02:47:46;101198.03;;;1.86;70.79
38038;BME280;23843;51.320;12.340;2023-11-22T02:50:11;101198.34;;;1.83;70.64
38038;BME280;23843;51.320;12.340;2023-11-22T02:52:37;101203.28;;;1.79;71.00
38038;BME280;23843;51.320;12.340;2023-11-22T02:55:03;101198.13;;;1.76;71.59
38038;BME280;23843;51.320;12.340;2023-11-22T02:57:30;101204.63;;;1.75;71.38
38038;BME280;23843;51.320;12.340;2023-11-22T02:59:55;101208.53;;;1.73;70.86
38038;BME280;23843;51.320;12.340;2023-11-22T03:02:21;101212.28;;;1.72;71.16
38038;BME280;23843;51.320;12.340;2023-11-22T03:04:46;101229.88;;;1.69;71.13
38038;BME280;23843;51.320;12.340;2023-11-22T03:07:12;101219.28;;;1.66;71.12
38038;BME280;23843;51.320;12.340;2023-11-22T03:09:37;101216.81;;;1.63;70.99
38038;BME280;23843;51.320;12.340;2023-11-22T03:12:03;101213.38;;;1.61;71.12
38038;BME280;23843;51.320;12.340;2023-11-22T03:14:30;101223.94;;;1.56;71.45
38038;BME280;23843;51.320;12.340;2023-11-22T03:16:56;101223.22;;;1.54;71.55
38038;BME280;23843;51.320;12.340;2023-11-22T03:19:21;101234.38;;;1.52;71.31
38038;BME280;23843;51.320;12.340;2023-11-22T03:21:47;101237.25;;;1.51;71.68
38038;BME280;23843;51.320;12.340;2023-11-22T03:24:12;101245.63;;;1.49;71.43
38038;BME280;23843;51.320;12.340;2023-11-22T03:26:37;101243.03;;;1.48;71.19
38038;BME280;23843;51.320;12.340;2023-11-22T03:29:03;101244.91;;;1.47;71.51
38038;BME280;23843;51.320;12.340;2023-11-22T03:31:30;101246.97;;;1.45;71.48
38038;BME280;23843;51.320;12.340;2023-11-22T03:33:57;101269.88;;;1.44;71.56
38038;BME280;23843;51.320;12.340;2023-11-22T03:36:23;101271.03;;;1.42;71.42
38038;BME280;23843;51.320;12.340;2023-11-22T03:38:48;101280.25;;;1.41;71.59
38038;BME280;23843;51.320;12.340;2023-11-22T03:41:14;101286.72;;;1.40;71.53
38038;BME280;23843;51.320;12.340;2023-11-22T03:43:39;101286.06;;;1.38;71.28
38038;BME280;23843;51.320;12.340;2023-11-22T03:46:05;101289.06;;;1.35;71.52
38038;BME280;23843;51.320;12.340;2023-11-22T03:48:31;101290.22;;;1.32;71.39
38038;BME280;23843;51.320;12.340;2023-11-22T03:50:57;101291.41;;;1.30;71.28
38038;BME280;23843;51.320;12.340;2023-11-22T03:53:22;101296.31;;;1.26;71.56
38038;BME280;23843;51.320;12.340;2023-11-22T03:55:48;101286.72;;;1.22;71.68
38038;BME280;23843;51.320;12.340;2023-11-22T03:58:14;101288.88;;;1.18;71.51
38038;BME280;23843;51.320;12.340;2023-11-22T04:00:39;101303.31;;;1.11;71.59
38038;BME280;23843;51.320;12.340;2023-11-22T04:03:05;101301.75;;;1.08;71.18
38038;BME280;23843;51.320;12.340;2023-11-22T04:05:31;101315.59;;;1.07;71.56
38038;BME280;23843;51.320;12.340;2023-11-22T04:07:57;101307.81;;;1.02;71.38
38038;BME280;23843;51.320;12.340;2023-11-22T04:10:23;101307.97;;;1.01;71.92
38038;BME280;23843;51.320;12.340;2023-11-22T04:12:49;101304.53;;;0.99;71.66
38038;BME280;23843;51.320;12.340;2023-11-22T04:15:14;101311.00;;;0.98;71.55
38038;BME280;23843;51.320;12.340;2023-11-22T04:17:40;101324.13;;;0.94;71.57
38038;BME280;23843;51.320;12.340;2023-11-22T04:20:07;101330.63;;;0.93;71.33
38038;BME280;23843;51.320;12.340;2023-11-22T04:22:34;101335.38;;;0.91;71.53
38038;BME280;23843;51.320;12.340;2023-11-22T04:24:59;101334.63;;;0.89;71.72
38038;BME280;23843;51.320;12.340;2023-11-22T04:27:24;101337.38;;;0.89;71.91
38038;BME280;23843;51.320;12.340;2023-11-22T04:29:50;101329.34;;;0.88;71.73
38038;BME280;23843;51.320;12.340;2023-11-22T04:32:15;101327.63;;;0.87;71.43
38038;BME280;23843;51.320;12.340;2023-11-22T04:34:41;101323.16;;;0.86;71.56
38038;BME280;23843;51.320;12.340;2023-11-22T04:37:06;101327.75;;;0.85;71.53
38038;BME280;23843;51.320;12.340;2023-11-22T04:39:33;101334.50;;;0.81;71.50
38038;BME280;23843;51.320;12.340;2023-11-22T04:41:58;101347.31;;;0.81;71.47
38038;BME280;23843;51.320;12.340;2023-11-22T04:44:24;101345.63;;;0.80;71.51
38038;BME280;23843;51.320;12.340;2023-11-22T04:46:49;101345.06;;;0.76;71.72
38038;BME280;23843;51.320;12.340;2023-11-22T04:49:15;101356.84;;;0.76;71.63
38038;BME280;23843;51.320;12.340;2023-11-22T04:51:40;101371.38;;;0.77;71.69
38038;BME280;23843;51.320;12.340;2023-11-22T04:54:06;101367.78;;;0.76;71.90
38038;BME280;23843;51.320;12.340;2023-11-22T04:56:33;101362.47;;;0.75;71.71
38038;BME280;23843;51.320;12.340;2023-11-22T04:58:58;101366.19;;;0.74;71.77
38038;BME280;23843;51.320;12.340;2023-11-22T05:01:23;101368.06;;;0.73;71.60
38038;BME280;23843;51.320;12.340;2023-11-22T05:03:49;101371.13;;;0.70;71.62
38038;BME280;23843;51.320;12.340;2023-11-22T05:06:14;101376.19;;;0.65;71.39
38038;BME280;23843;51.320;12.340;2023-11-22T05:08:40;101374.72;;;0.61;71.75
38038;BME280;23843;51.320;12.340;2023-11-22T05:11:05;101391.13;;;0.61;71.64
38038;BME280;23843;51.320;12.340;2023-11-22T05:13:32;101390.25;;;0.61;71.63
38038;BME280;23843;51.320;12.340;2023-11-22T05:15:57;101382.19;;;0.59;71.77
38038;BME280;23843;51.320;12.340;2023-11-22T05:18:23;101400.47;;;0.59;71.87
38038;BME280;23843;51.320;12.340;2023-11-22T05:20:48;101392.28;;;0.59;71.65
38038;BME280;23843;51.320;12.340;2023-11-22T05:23:14;101389.53;;;0.59;71.63
38038;BME280;23843;51.320;12.340;2023-11-22T05:25:39;101401.34;;;0.59;71.71
38038;BME280;23843;51.320;12.340;2023-11-22T05:28:05;101409.41;;;0.61;71.71
38038;BME280;23843;51.320;12.340;2023-11-22T05:30:32;101409.53;;;0.59;71.69
38038;BME280;23843;51.320;12.340;2023-11-22T05:32:57;101419.59;;;0.59;71.62
38038;BME280;23843;51.320;12.340;2023-11-22T05:35:22;101426.81;;;0.60;71.55
38038;BME280;23843;51.320;12.340;2023-11-22T05:37:48;101428.69;;;0.59;71.61
38038;BME280;23843;51.320;12.340;2023-11-22T05:40:13;101436.00;;;0.59;71.87
38038;BME280;23843;51.320;12.340;2023-11-22T05:42:39;101438.47;;;0.62;71.85
38038;BME280;23843;51.320;12.340;2023-11-22T05:45:05;101445.53;;;0.64;71.81
38038;BME280;23843;51.320;12.340;2023-11-22T05:47:32;101455.88;;;0.70;71.73
38038;BME280;23843;51.320;12.340;2023-11-22T05:49:58;101457.91;;;0.78;72.06
38038;BME280;23843;51.320;12.340;2023-11-22T05:52:23;101447.09;;;0.86;71.78
38038;BME280;23843;51.320;12.340;2023-11-22T05:54:48;101451.84;;;0.94;71.55
38038;BME280;23843;51.320;12.340;2023-11-22T05:57:14;101445.63;;;1.01;71.39
38038;BME280;23843;51.320;12.340;2023-11-22T05:59:39;101445.03;;;1.07;71.57
38038;BME280;23843;51.320;12.340;2023-11-22T06:02:05;101447.19;;;1.13;71.40
38038;BME280;23843;51.320;12.340;2023-11-22T06:04:32;101455.25;;;1.15;70.86
38038;BME280;23843;51.320;12.340;2023-11-22T06:06:57;101451.50;;;1.16;71.61
38038;BME280;23843;51.320;12.340;2023-11-22T06:09:22;101452.06;;;1.20;70.99
38038;BME280;23843;51.320;12.340;2023-11-22T06:11:48;101458.25;;;1.22;70.98
38038;BME280;23843;51.320;12.340;2023-11-22T06:14:13;101450.19;;;1.20;71.00
38038;BME280;23843;51.320;12.340;2023-11-22T06:16:39;101448.47;;;1.19;70.94
38038;BME280;23843;51.320;12.340;2023-11-22T06:19:04;101453.78;;;1.21;71.16
38038;BME280;23843;51.320;12.340;2023-11-22T06:21:31;101449.03;;;1.23;71.30
38038;BME280;23843;51.320;12.340;2023-11-22T06:23:56;101456.25;;;1.24;70.61
38038;BME280;23843;51.320;12.340;2023-11-22T06:26:22;101456.25;;;1.24;70.80
38038;BME280;23843;51.320;12.340;2023-11-22T06:28:48;101454.38;;;1.24;70.69
38038;BME280;23843;51.320;12.340;2023-11-22T06:31:13;101455.50;;;1.22;70.96
38038;BME280;23843;51.320;12.340;2023-11-22T06:33:38;101461.41;;;1.17;70.51
38038;BME280;23843;51.320;12.340;2023-11-22T06:36:04;101479.88;;;1.15;70.72
38038;BME280;23843;51.320;12.340;2023-11-22T06:38:31;101483.19;;;1.09;70.64
38038;BME280;23843;51.320;12.340;2023-11-22T06:40:56;101483.75;;;1.03;70.71
38038;BME280;23843;51.320;12.340;2023-11-22T06:43:22;101489.69;;;0.98;70.74
38038;BME280;23843;51.320;12.340;2023-11-22T06:45:48;101488.25;;;0.94;70.43
38038;BME280;23843;51.320;12.340;2023-11-22T06:48:13;101487.97;;;0.88;70.28
38038;BME280;23843;51.320;12.340;2023-11-22T06:50:39;101497.31;;;0.85;70.54
38038;BME280;23843;51.320;12.340;2023-11-22T06:53:04;101505.81;;;0.82;70.74
38038;BME280;23843;51.320;12.340;2023-11-22T06:55:31;101514.16;;;0.81;70.74
38038;BME280;23843;51.320;12.340;2023-11-22T06:57:56;101522.94;;;0.84;70.81
38038;BME280;23843;51.320;12.340;2023-11-22T07:00:22;101533.75;;;0.86;70.72
38038;BME280;23843;51.320;12.340;2023-11-22T07:02:47;101533.16;;;0.82;70.50
38038;BME280;23843;51.320;12.340;2023-11-22T07:05:13;101539.06;;;0.77;70.64
38038;BME280;23843;51.320;12.340;2023-11-22T07:07:38;101539.34;;;0.74;70.55
38038;BME280;23843;51.320;12.340;2023-11-22T07:10:05;101543.81;;;0.75;70.46
38038;BME280;23843;51.320;12.340;2023-11-22T07:12:31;101544.81;;;0.74;70.35
38038;BME280;23843;51.320;12.340;2023-11-22T07:14:57;101547.13;;;0.69;70.40
38038;BME280;23843;51.320;12.340;2023-11-22T07:17:22;101539.19;;;0.66;70.15
38038;BME280;23843;51.320;12.340;2023-11-22T07:19:48;101541.06;;;0.66;70.49
38038;BME280;23843;51.320;12.340;2023-11-22T07:22:14;101543.22;;;0.62;70.29
38038;BME280;23843;51.320;12.340;2023-11-22T07:24:39;101536.47;;;0.57;70.33
38038;BME280;23843;51.320;12.340;2023-11-22T07:27:05;101549.53;;;0.53;70.02
38038;BME280;23843;51.320;12.340;2023-11-22T07:29:31;101547.97;;;0.51;70.25
38038;BME280;23843;51.320;12.340;2023-11-22T07:31:57;101557.75;;;0.53;70.43
38038;BME280;23843;51.320;12.340;2023-11-22T07:34:22;101561.94;;;0.57;70.32
38038;BME280;23843;51.320;12.340;2023-11-22T07:36:48;101561.50;;;0.62;70.47
38038;BME280;23843;51.320;12.340;2023-11-22T07:39:13;101562.38;;;0.62;70.10
38038;BME280;23843;51.320;12.340;2023-11-22T07:41:38;101575.19;;;0.62;70.42
38038;BME280;23843;51.320;12.340;2023-11-22T07:44:04;101577.63;;;0.65;70.17
38038;BME280;23843;51.320;12.340;2023-11-22T07:46:31;101593.88;;;0.66;70.19
38038;BME280;23843;51.320;12.340;2023-11-22T07:48:56;101597.34;;;0.68;70.10
38038;BME280;23843;51.320;12.340;2023-11-22T07:51:22;101607.00;;;0.72;70.18
38038;BME280;23843;51.320;12.340;2023-11-22T07:53:47;101607.72;;;0.74;70.13
38038;BME280;23843;51.320;12.340;2023-11-22T07:56:12;101606.31;;;0.80;70.08
38038;BME280;23843;51.320;12.340;2023-11-22T07:58:38;101617.06;;;0.82;70.04
38038;BME280;23843;51.320;12.340;2023-11-22T08:01:04;101614.94;;;0.85;70.09
38038;BME280;23843;51.320;12.340;2023-11-22T08:03:31;101611.78;;;0.90;70.08
38038;BME280;23843;51.320;12.340;2023-11-22T08:05:56;101604.16;;;0.93;69.49
38038;BME280;23843;51.320;12.340;2023-11-22T08:08:22;101601.28;;;0.95;69.63
38038;BME280;23843;51.320;12.340;2023-11-22T08:10:48;101592.63;;;0.99;69.85
38038;BME280;23843;51.320;12.340;2023-11-22T08:13:14;101584.00;;;1.04;69.59
38038;BME280;23843;51.320;12.340;2023-11-22T08:15:39;101578.97;;;1.09;69.55
38038;BME280;23843;51.320;12.340;2023-11-22T08:18:05;101582.84;;;1.16;69.70
38038;BME280;23843;51.320;12.340;2023-11-22T08:20:32;101589.31;;;1.25;69.77
38038;BME280;23843;51.320;12.340;2023-11-22T08:22:57;101583.41;;;1.29;69.47
38038;BME280;23843;51.320;12.340;2023-11-22T08:25:22;101575.34;;;1.28;69.34
38038;BME280;23843;51.320;12.340;2023-11-22T08:27:48;101580.53;;;1.21;69.22
38038;BME280;23843;51.320;12.340;2023-11-22T08:30:14;101562.97;;;1.14;69.31
38038;BME280;23843;51.320;12.340;2023-11-22T08:32:40;101556.03;;;1.10;69.51
38038;BME280;23843;51.320;12.340;2023-11-22T08:35:06;101554.75;;;1.14;69.52
38038;BME280;23843;51.320;12.340;2023-11-22T08:37:33;101559.78;;;1.18;69.48
38038;BME280;23843;51.320;12.340;2023-11-22T08:39:59;101550.88;;;1.16;69.34
38038;BME280;23843;51.320;12.340;2023-11-22T08:42:24;101566.25;;;1.17;69.70
38038;BME280;23843;51.320;12.340;2023-11-22T08:44:50;101562.25;;;1.22;69.44
38038;BME280;23843;51.320;12.340;2023-11-22T08:47:15;101555.19;;;1.19;69.40
38038;BME280;23843;51.320;12.340;2023-11-22T08:49:41;101551.44;;;1.20;69.52
38038;BME280;23843;51.320;12.340;2023-11-22T08:52:06;101556.31;;;1.26;69.41
38038;BME280;23843;51.320;12.340;2023-11-22T08:54:33;101549.72;;;1.29;69.48
38038;BME280;23843;51.320;12.340;2023-11-22T08:56:58;101537.88;;;1.38;69.47
38038;BME280;23843;51.320;12.340;2023-11-22T08:59:24;101548.09;;;1.45;69.61
38038;BME280;23843;51.320;12.340;2023-11-22T09:01:49;101567.81;;;1.39;68.85
38038;BME280;23843;51.320;12.340;2023-11-22T09:04:15;101561.66;;;1.37;69.00
38038;BME280;23843;51.320;12.340;2023-11-22T09:06:40;101575.94;;;1.31;68.54
38038;BME280;23843;51.320;12.340;2023-11-22T09:09:05;101584.88;;;1.24;68.80
38038;BME280;23843;51.320;12.340;2023-11-22T09:11:32;101583.28;;;1.21;69.07
38038;BME280;23843;51.320;12.340;2023-11-22T09:13:58;101600.25;;;1.25;69.29
38038;BME280;23843;51.320;12.340;2023-11-22T09:16:24;101604.72;;;1.26;69.05
38038;BME280;23843;51.320;12.340;2023-11-22T09:18:49;101606.75;;;1.33;69.04
38038;BME280;23843;51.320;12.340;2023-11-22T09:21:15;101611.22;;;1.44;68.81
38038;BME280;23843;51.320;12.340;2023-11-22T09:23:42;101607.28;;;1.56;69.21
38038;BME280;23843;51.320;12.340;2023-11-22T09:26:07;101609.16;;;1.75;69.01
38038;BME280;23843;51.320;12.340;2023-11-22T09:28:34;101599.13;;;1.93;68.82
38038;BME280;23843;51.320;12.340;2023-11-22T09:30:59;101616.97;;;2.07;68.33
38038;BME280;23843;51.320;12.340;2023-11-22T09:33:25;101620.25;;;2.20;68.54
38038;BME280;23843;51.320;12.340;2023-11-22T09:35:50;101614.44;;;2.32;69.09
38038;BME280;23843;51.320;12.340;2023-11-22T09:38:16;101605.84;;;2.45;68.68
38038;BME280;23843;51.320;12.340;2023-11-22T09:40:42;101598.44;;;2.55;68.86
38038;BME280;23843;51.320;12.340;2023-11-22T09:43:08;101586.84;;;2.61;67.70
38038;BME280;23843;51.320;12.340;2023-11-22T09:45:36;101594.00;;;2.72;68.71
38038;BME280;23843;51.320;12.340;2023-11-22T09:48:02;101576.75;;;2.80;67.55
38038;BME280;23843;51.320;12.340;2023-11-22T09:50:34;101560.91;;;2.73;67.66
38038;BME280;23843;51.320;12.340;2023-11-22T09:53:02;101549.81;;;2.75;67.31
38038;BME280;23843;51.320;12.340;2023-11-22T09:55:30;101543.84;;;2.80;67.06
38038;BME280;23843;51.320;12.340;2023-11-22T09:57:58;101550.56;;;2.67;65.73
38038;BME280;23843;51.320;12.340;2023-11-22T10:00:24;101561.44;;;2.59;67.23
38038;BME280;23843;51.320;12.340;2023-11-22T10:02:53;101561.81;;;2.47;66.56
38038;BME280;23843;51.320;12.340;2023-11-22T10:05:18;101556.63;;;2.44;66.95
38038;BME280;23843;51.320;12.340;2023-11-22T10:07:44;101550.13;;;2.45;67.03
38038;BME280;23843;51.320;12.340;2023-11-22T10:10:09;101554.91;;;2.43;66.81
38038;BME280;23843;51.320;12.340;2023-11-22T10:12:35;101552.31;;;2.41;67.46
38038;BME280;23843;51.320;12.340;2023-11-22T10:15:11;101556.88;;;2.50;67.64
38038;BME280;23843;51.320;12.340;2023-11-22T10:17:36;101555.47;;;2.46;67.19
38038;BME280;23843;51.320;12.340;2023-11-22T10:20:04;101561.97;;;2.45;67.10
38038;BME280;23843;51.320;12.340;2023-11-22T10:22:30;101575.69;;;2.45;66.61
38038;BME280;23843;51.320;12.340;2023-11-22T10:24:58;101575.22;;;2.50;67.66
38038;BME280;23843;51.320;12.340;2023-11-22T10:27:23;101585.84;;;2.62;67.36
38038;BME280;23843;51.320;12.340;2023-11-22T10:29:51;101586.00;;;2.79;68.00
38038;BME280;23843;51.320;12.340;2023-11-22T10:32:16;101586.34;;;2.93;66.80
38038;BME280;23843;51.320;12.340;2023-11-22T10:34:42;101598.50;;;3.08;67.32
38038;BME280;23843;51.320;12.340;2023-11-22T10:37:09;101600.00;;;3.21;67.13
38038;BME280;23843;51.320;12.340;2023-11-22T10:39:34;101604.72;;;3.28;67.68
38038;BME280;23843;51.320;12.340;2023-11-22T10:42:00;101598.97;;;3.39;67.04
38038;BME280;23843;51.320;12.340;2023-11-22T10:44:25;101597.22;;;3.56;66.84
38038;BME280;23843;51.320;12.340;2023-11-22T10:46:51;101603.69;;;3.73;66.77
38038;BME280;23843;51.320;12.340;2023-11-22T10:49:16;101606.34;;;3.82;67.43
38038;BME280;23843;51.320;12.340;2023-11-22T10:51:44;101598.16;;;3.90;67.76
38038;BME280;23843;51.320;12.340;2023-11-22T10:54:14;101608.66;;;3.95;67.00
38038;BME280;23843;51.320;12.340;2023-11-22T10:56:40;101614.72;;;3.99;67.36
38038;BME280;23843;51.320;12.340;2023-11-22T10:59:10;101614.94;;;4.05;67.02
38038;BME280;23843;51.320;12.340;2023-11-22T11:01:36;101611.69;;;4.10;67.94
38038;BME280;23843;51.320;12.340;2023-11-22T11:04:03;101603.97;;;4.13;67.80
38038;BME280;23843;51.320;12.340;2023-11-22T11:06:34;101614.31;;;4.19;67.28
38038;BME280;23843;51.320;12.340;2023-11-22T11:09:00;101623.47;;;4.28;67.12
38038;BME280;23843;51.320;12.340;2023-11-22T11:11:28;101626.59;;;4.33;67.73
38038;BME280;23843;51.320;12.340;2023-11-22T11:13:54;101629.41;;;4.41;67.00
38038;BME280;23843;51.320;12.340;2023-11-22T11:16:20;101631.31;;;4.49;66.87
38038;BME280;23843;51.320;12.340;2023-11-22T11:18:46;101628.94;;;4.54;67.58
38038;BME280;23843;51.320;12.340;2023-11-22T11:21:15;101630.16;;;4.51;67.06
38038;BME280;23843;51.320;12.340;2023-11-22T11:23:40;101636.81;;;4.49;67.13
38038;BME280;23843;51.320;12.340;2023-11-22T11:26:13;101627.34;;;4.43;67.24
38038;BME280;23843;51.320;12.340;2023-11-22T11:28:43;101617.06;;;4.45;67.50
38038;BME280;23843;51.320;12.340;2023-11-22T11:31:09;101630.47;;;4.48;67.42
38038;BME280;23843;51.320;12.340;2023-11-22T11:33:53;101629.13;;;4.52;67.23
38038;BME280;23843;51.320;12.340;2023-11-22T11:36:21;101634.97;;;4.57;66.44
38038;BME280;23843;51.320;12.340;2023-11-22T11:38:47;101641.56;;;4.64;66.50
38038;BME280;23843;51.320;12.340;2023-11-22T11:41:13;101620.91;;;4.68;66.23
38038;BME280;23843;51.320;12.340;2023-11-22T11:43:39;101603.53;;;4.68;66.28
38038;BME280;23843;51.320;12.340;2023-11-22T11:46:08;101603.72;;;4.66;66.44
38038;BME280;23843;51.320;12.340;2023-11-22T11:48:34;101595.09;;;4.61;66.16
38038;BME280;23843;51.320;12.340;2023-11-22T11:50:59;101595.75;;;4.55;66.70
38038;BME280;23843;51.320;12.340;2023-11-22T11:53:25;101598.16;;;4.50;66.74
38038;BME280;23843;51.320;12.340;2023-11-22T11:55:50;101600.91;;;4.50;66.68
38038;BME280;23843;51.320;12.340;2023-11-22T11:58:16;101609.47;;;4.47;66.42
38038;BME280;23843;51.320;12.340;2023-11-22T12:00:41;101603.09;;;4.47;66.96
38038;BME280;23843;51.320;12.340;2023-11-22T12:03:08;101602.94;;;4.48;67.22
38038;BME280;23843;51.320;12.340;2023-11-22T12:05:33;101608.28;;;4.50;66.81
38038;BME280;23843;51.320;12.340;2023-11-22T12:07:59;101603.16;;;4.55;66.92
38038;BME280;23843;51.320;12.340;2023-11-22T12:10:25;101608.50;;;4.56;66.77
38038;BME280;23843;51.320;12.340;2023-11-22T12:12:51;101587.66;;;4.54;66.51
38038;BME280;23843;51.320;12.340;2023-11-22T12:15:17;101584.72;;;4.47;66.60
38038;BME280;23843;51.320;12.340;2023-11-22T12:17:43;101584.66;;;4.39;66.33
38038;BME280;23843;51.320;12.340;2023-11-22T12:20:12;101575.53;;;4.30;66.52
38038;BME280;23843;51.320;12.340;2023-11-22T12:22:38;101570.88;;;4.23;67.14
38038;BME280;23843;51.320;12.340;2023-11-22T12:25:04;101566.84;;;4.17;67.12
38038;BME280;23843;51.320;12.340;2023-11-22T12:27:30;101562.88;;;4.12;67.47
38038;BME280;23843;51.320;12.340;2023-11-22T12:29:55;101554.97;;;4.09;67.01
38038;BME280;23843;51.320;12.340;2023-11-22T12:32:23;101550.66;;;4.06;67.70
38038;BME280;23843;51.320;12.340;2023-11-22T12:34:49;101549.09;;;4.04;67.56
38038;BME280;23843;51.320;12.340;2023-11-22T12:37:15;101545.31;;;4.05;67.65
38038;BME280;23843;51.320;12.340;2023-11-22T12:39:41;101533.31;;;4.06;67.63
38038;BME280;23843;51.320;12.340;2023-11-22T12:42:06;101531.94;;;4.10;67.67